Time;durP1;ratioP1;P1;durP2;ratioP2;P2;SDS_P1;SDS_P2;PMS_P1;PMS_P2;Temp;Humidity;BMP_temperature;BMP_pressure;BME280_temperature;BME280_humidity;BME280_pressure;Samples;Min_cycle;Max_cycle;Signal;HPM_P1;HPM_P2
2021/04/12 00:00:40;;;;;;;8.27;1.20;;;;;;;4.56;65.32;100296.97;5035254;28;20571;-86
2021/04/12 00:03:21;;;;;;;2.63;1.55;;;;;;;4.57;65.27;100297.81;5035261;28;20053;-85
2021/04/12 00:06:15;;;;;;;2.00;1.20;;;;;;;4.56;65.03;100307.38;5052807;28;20049;-85
2021/04/12 00:08:52;;;;;;;3.05;1.83;;;;;;;4.56;65.24;100307.38;5046531;28;20041;-86
2021/04/12 00:11:50;;;;;;;11.13;1.67;;;;;;;4.55;64.87;100300.47;5035359;28;20468;-85
2021/04/12 00:14:25;;;;;;;4.00;1.50;;;;;;;4.57;65.24;100319.53;5035089;28;20048;-85
2021/04/12 00:16:54;;;;;;;3.50;1.85;;;;;;;4.57;65.36;100313.47;5074990;22;20106;-86
2021/04/12 00:19:33;;;;;;;5.07;1.75;;;;;;;4.53;65.22;100310.06;5051642;28;20077;-86
2021/04/12 00:21:59;;;;;;;6.60;1.70;;;;;;;4.55;65.48;100300.47;5053288;28;20060;-86
2021/04/12 00:24:43;;;;;;;5.85;1.85;;;;;;;4.51;65.14;100298.81;5034790;28;20061;-86
2021/04/12 00:27:16;;;;;;;5.43;1.90;;;;;;;4.53;65.09;100294.41;5056026;28;20049;-86
2021/04/12 00:30:11;;;;;;;4.47;1.50;;;;;;;4.50;64.98;100294.50;5056338;28;20049;-85
2021/04/12 00:32:47;;;;;;;7.82;1.67;;;;;;;4.52;65.21;100290.09;5029485;28;20056;-86
2021/04/12 00:35:22;;;;;;;5.95;1.55;;;;;;;4.49;65.12;100295.38;5055771;28;20051;-85
2021/04/12 00:38:15;;;;;;;3.88;1.80;;;;;;;4.47;64.87;100306.72;5056055;28;20049;-85
2021/04/12 00:40:41;;;;;;;3.20;1.63;;;;;;;4.49;65.41;100308.41;5038305;28;20048;-86
2021/04/12 00:43:47;;;;;;;3.20;1.52;;;;;;;4.45;65.06;100308.53;5038292;28;20417;-86
2021/04/12 00:46:35;;;;;;;5.07;1.63;;;;;;;4.43;65.15;100314.66;5032971;28;20056;-85
2021/04/12 00:49:17;;;;;;;5.63;1.70;;;;;;;4.42;65.13;100317.28;5055991;28;20048;-86
2021/04/12 00:51:46;;;;;;;3.28;1.40;;;;;;;4.42;65.54;100318.13;5038319;28;20053;-85
2021/04/12 00:54:31;;;;;;;3.28;1.70;;;;;;;4.41;65.42;100316.41;5055547;28;20098;-86
2021/04/12 00:57:09;;;;;;;6.78;2.72;;;;;;;4.41;65.68;100326.84;5055562;28;20103;-86
2021/04/12 00:59:47;;;;;;;4.57;1.75;;;;;;;4.40;65.88;100322.53;5055680;28;20045;-85
2021/04/12 01:02:47;;;;;;;6.45;2.22;;;;;;;4.36;65.22;100320.00;5038144;28;20122;-85
2021/04/12 01:05:41;;;;;;;7.15;1.58;;;;;;;4.36;65.56;100322.63;5037733;28;20405;-85
2021/04/12 01:08:20;;;;;;;5.07;2.28;;;;;;;4.36;65.47;100323.47;5055552;28;20420;-85
2021/04/12 01:11:04;;;;;;;5.32;1.90;;;;;;;4.35;65.92;100321.78;5055298;28;20048;-86
2021/04/12 01:13:30;;;;;;;4.63;2.00;;;;;;;4.35;65.74;100326.13;5055290;28;20045;-85
2021/04/12 01:16:15;;;;;;;6.20;2.08;;;;;;;4.32;65.40;100320.97;5054966;28;20048;-86
2021/04/12 01:19:00;;;;;;;3.78;2.05;;;;;;;4.31;65.72;100322.72;5055243;28;20409;-85
2021/04/12 01:21:45;;;;;;;3.55;1.40;;;;;;;4.29;65.91;100327.97;5037595;28;20045;-86
2021/04/12 01:24:45;;;;;;;5.82;2.10;;;;;;;4.28;65.54;100333.22;5037298;28;20053;-86
2021/04/12 01:27:29;;;;;;;3.55;2.00;;;;;;;4.29;65.98;100338.41;5055465;28;20099;-85
2021/04/12 01:30:19;;;;;;;4.05;1.80;;;;;;;4.27;65.48;100329.75;5055168;28;20440;-85
2021/04/12 01:33:07;;;;;;;6.65;1.85;;;;;;;4.27;65.69;100336.72;5037453;28;20063;-85
2021/04/12 01:35:41;;;;;;;2.88;2.22;;;;;;;4.26;65.76;100335.84;5037140;28;20053;-86
2021/04/12 01:38:25;;;;;;;5.50;1.90;;;;;;;4.24;65.51;100334.16;5054176;28;20056;-86
2021/04/12 01:41:00;;;;;;;5.22;1.90;;;;;;;4.24;65.70;100335.03;5054910;28;20057;-86
2021/04/12 01:43:39;;;;;;;5.50;2.08;;;;;;;4.25;65.74;100341.97;5037265;28;20049;-85
2021/04/12 01:46:36;;;;;;;5.40;1.73;;;;;;;4.23;65.96;100335.06;5054638;28;20057;-86
2021/04/12 01:49:13;;;;;;;4.93;2.10;;;;;;;4.24;65.59;100347.19;5046735;28;20179;-85
2021/04/12 01:52:16;;;;;;;3.22;1.98;;;;;;;4.22;65.49;100336.81;5054855;28;20056;-85
2021/04/12 01:54:54;;;;;;;4.85;1.77;;;;;;;4.23;65.99;100348.94;5054309;28;20041;-86
2021/04/12 01:57:36;;;;;;;6.38;1.98;;;;;;;4.25;65.71;100355.00;5054697;28;20053;-85
2021/04/12 02:00:12;;;;;;;4.88;2.35;;;;;;;4.22;65.78;100357.66;5036946;28;20049;-85
2021/04/12 02:02:38;;;;;;;4.47;2.10;;;;;;;4.21;65.75;100352.47;5054502;28;20106;-86
2021/04/12 02:05:33;;;;;;;2.70;1.80;;;;;;;4.14;65.56;100370.84;5054017;28;20052;-86
2021/04/12 02:08:09;;;;;;;5.97;1.98;;;;;;;4.14;65.41;100372.59;5036781;28;20107;-86
2021/04/12 02:10:38;;;;;;;3.80;1.77;;;;;;;4.13;66.19;100382.16;5054242;28;20519;-85
2021/04/12 02:13:40;;;;;;;5.10;2.28;;;;;;;4.08;65.39;100376.19;5054461;28;20107;-86
2021/04/12 02:16:22;;;;;;;6.35;1.88;;;;;;;4.08;66.02;100372.72;5054157;28;20056;-85
2021/04/12 02:19:06;;;;;;;6.03;2.42;;;;;;;4.06;65.57;100377.97;5054100;28;20555;-85
2021/04/12 02:21:39;;;;;;;6.50;2.45;;;;;;;4.04;66.08;100377.16;5054260;28;20049;-85
2021/04/12 02:24:30;;;;;;;4.95;2.38;;;;;;;4.00;65.86;100386.75;5053836;28;20057;-85
2021/04/12 02:27:02;;;;;;;5.40;2.50;;;;;;;4.02;66.07;100390.19;5054058;28;20049;-85
2021/04/12 02:29:40;;;;;;;6.37;2.70;;;;;;;3.99;66.05;100391.97;5054262;28;20478;-85
2021/04/12 02:32:41;;;;;;;5.25;2.03;;;;;;;3.97;66.13;100402.47;5053896;28;20060;-85
2021/04/12 02:35:50;;;;;;;5.28;2.15;;;;;;;3.96;66.27;100405.94;5036056;28;20132;-85
2021/04/12 02:38:25;;;;;;;3.90;1.83;;;;;;;3.98;66.02;100409.38;5053605;28;20102;-85
2021/04/12 02:41:05;;;;;;;5.25;2.30;;;;;;;3.97;66.05;100415.47;5053618;28;20060;-85
2021/04/12 02:44:08;;;;;;;6.53;2.10;;;;;;;3.96;65.89;100418.09;5053341;28;20098;-86
2021/04/12 02:46:47;;;;;;;4.47;1.90;;;;;;;3.97;65.88;100419.81;5034584;28;20091;-86
2021/04/12 02:49:32;;;;;;;5.45;2.13;;;;;;;3.95;66.19;100419.84;5053345;28;20053;-85
2021/04/12 02:52:30;;;;;;;6.28;2.30;;;;;;;3.91;65.93;100421.66;5036037;28;20056;-86
2021/04/12 02:55:33;;;;;;;7.25;2.03;;;;;;;3.90;66.04;100419.91;5053230;28;20049;-86
2021/04/12 02:58:37;;;;;;;4.30;2.13;;;;;;;3.89;66.32;100414.75;5053310;28;20048;-86
2021/04/12 03:01:32;;;;;;;5.85;2.35;;;;;;;3.88;66.47;100421.72;5053582;28;20053;-85
2021/04/12 03:04:18;;;;;;;6.75;2.35;;;;;;;3.88;66.27;100420.84;5053065;28;20537;-86
2021/04/12 03:07:21;;;;;;;3.05;1.67;;;;;;;3.87;66.03;100411.31;5053450;28;20056;-85
2021/04/12 03:10:03;;;;;;;6.82;1.88;;;;;;;3.86;66.16;100409.59;5053125;28;20056;-86
2021/04/12 03:12:51;;;;;;;2.83;1.40;;;;;;;3.84;66.73;100412.22;5053495;28;20052;-86
2021/04/12 03:15:35;;;;;;;4.18;2.10;;;;;;;3.88;66.48;100423.44;5053016;28;20053;-86
2021/04/12 03:18:39;;;;;;;6.20;2.60;;;;;;;3.84;66.40;100424.38;5053269;28;20052;-86
2021/04/12 03:21:33;;;;;;;7.57;2.25;;;;;;;3.83;66.57;100426.16;5035855;28;20056;-86
2021/04/12 03:24:22;;;;;;;4.05;1.90;;;;;;;3.82;66.30;100429.66;5053092;28;20109;-86
2021/04/12 03:27:22;;;;;;;4.80;1.88;;;;;;;3.81;66.20;100432.28;5035864;28;20049;-85
2021/04/12 03:30:26;;;;;;;6.20;2.08;;;;;;;3.80;66.72;100430.53;5035543;28;20079;-85
2021/04/12 03:33:18;;;;;;;7.25;2.40;;;;;;;3.81;67.01;100427.06;5035211;28;20049;-86
2021/04/12 03:36:10;;;;;;;4.35;2.05;;;;;;;3.77;66.53;100434.06;5052793;28;20509;-86
2021/04/12 03:38:36;;;;;;;5.72;2.13;;;;;;;3.81;67.00;100442.69;5035423;28;20045;-85
2021/04/12 03:41:02;;;;;;;5.45;2.40;;;;;;;3.78;66.73;100439.25;5052855;28;20486;-85
2021/04/12 03:43:28;;;;;;;5.28;2.58;;;;;;;3.77;67.16;100441.88;5053359;28;20056;-86
2021/04/12 03:46:08;;;;;;;6.35;2.38;;;;;;;3.77;66.83;100440.13;5052601;28;20048;-85
2021/04/12 03:49:02;;;;;;;5.28;2.20;;;;;;;3.74;66.86;100444.53;5035460;28;20478;-85
2021/04/12 03:51:37;;;;;;;4.07;2.22;;;;;;;3.77;67.03;100441.88;5035230;28;20056;-86
2021/04/12 03:54:22;;;;;;;7.07;2.85;;;;;;;3.73;66.88;100441.06;5035254;28;20053;-86
2021/04/12 03:57:38;;;;;;;5.00;2.40;;;;;;;3.73;66.83;100441.06;5052766;28;20079;-85
2021/04/12 04:00:26;;;;;;;7.28;2.20;;;;;;;3.76;66.77;100446.22;5053529;28;20060;-85
2021/04/12 04:03:13;;;;;;;5.93;2.00;;;;;;;3.76;66.83;100448.84;5038946;28;20055;-85
2021/04/12 04:06:21;;;;;;;4.32;1.98;;;;;;;3.74;67.21;100445.38;5056464;28;20131;-86
2021/04/12 04:09:16;;;;;;;6.85;2.22;;;;;;;3.73;66.81;100446.28;5056591;28;20401;-85
2021/04/12 04:12:01;;;;;;;4.68;2.17;;;;;;;3.73;66.85;100442.81;5056657;28;20049;-85
2021/04/12 04:15:06;;;;;;;4.63;2.50;;;;;;;3.72;67.11;100441.09;5038596;28;20048;-85
2021/04/12 04:18:02;;;;;;;10.00;2.80;;;;;;;3.71;66.89;100439.38;5053097;28;20183;-85
2021/04/12 04:20:48;;;;;;;6.60;2.50;;;;;;;3.70;67.09;100438.50;5056444;28;20045;-85
2021/04/12 04:23:19;;;;;;;5.38;2.38;;;;;;;3.70;67.01;100435.91;5056550;28;20106;-86
2021/04/12 04:26:09;;;;;;;6.30;2.35;;;;;;;3.70;67.08;100445.47;5056080;28;20052;-85
2021/04/12 04:28:47;;;;;;;6.57;2.10;;;;;;;3.67;66.68;100442.94;5056388;28;20080;-85
2021/04/12 04:31:55;;;;;;;10.05;2.80;;;;;;;3.65;66.79;100448.16;5056238;28;20055;-85
2021/04/12 04:34:25;;;;;;;8.88;2.80;;;;;;;3.66;67.13;100447.25;5018735;28;20049;-85
2021/04/12 04:37:36;;;;;;;6.47;2.50;;;;;;;3.62;67.17;100448.19;5056048;28;20052;-85
2021/04/12 04:40:21;;;;;;;3.65;2.30;;;;;;;3.64;66.99;100449.03;5055875;28;20041;-85
2021/04/12 04:43:25;;;;;;;5.57;2.40;;;;;;;3.60;66.76;100457.78;5038442;28;20052;-85
2021/04/12 04:46:14;;;;;;;6.82;2.60;;;;;;;3.60;67.34;100465.59;5055474;28;20049;-85
2021/04/12 04:48:53;;;;;;;6.13;2.85;;;;;;;3.58;67.12;100467.34;5038162;28;20091;-85
2021/04/12 04:51:48;;;;;;;5.47;2.83;;;;;;;3.55;67.06;100470.88;5055813;28;20068;-86
2021/04/12 04:54:20;;;;;;;8.38;2.90;;;;;;;3.54;67.46;100474.38;5055707;28;20056;-85
2021/04/12 04:56:52;;;;;;;4.32;2.70;;;;;;;3.56;67.31;100474.34;5055769;28;20052;-85
2021/04/12 04:59:36;;;;;;;8.45;2.53;;;;;;;3.53;67.31;100483.06;5038284;28;20049;-85
2021/04/12 05:02:12;;;;;;;8.27;2.92;;;;;;;3.50;67.58;100486.59;5055779;28;20045;-85
2021/04/12 05:05:05;;;;;;;4.65;2.47;;;;;;;3.48;67.21;100493.53;5055396;28;20053;-85
2021/04/12 05:08:03;;;;;;;7.00;2.42;;;;;;;3.48;67.64;100487.50;5055680;28;20053;-85
2021/04/12 05:10:51;;;;;;;5.57;2.85;;;;;;;3.48;67.70;100485.72;5055501;28;20049;-85
2021/04/12 05:13:17;;;;;;;7.13;2.72;;;;;;;3.50;67.62;100491.78;5055536;28;20095;-85
2021/04/12 05:16:07;;;;;;;7.25;2.92;;;;;;;3.47;67.97;100497.03;5055065;28;20053;-85
2021/04/12 05:19:04;;;;;;;5.43;2.65;;;;;;;3.46;67.86;100503.13;5055295;28;20045;-85
2021/04/12 05:21:52;;;;;;;7.68;2.65;;;;;;;3.49;67.58;100508.28;5055364;28;20056;-85
2021/04/12 05:24:36;;;;;;;5.35;2.55;;;;;;;3.50;68.20;100507.41;5055022;28;20083;-85
2021/04/12 05:27:26;;;;;;;4.53;2.53;;;;;;;3.47;68.08;100502.25;5055250;28;20049;-85
2021/04/12 05:30:10;;;;;;;9.65;3.25;;;;;;;3.48;67.54;100509.16;5055197;28;20114;-86
2021/04/12 05:32:46;;;;;;;9.02;3.45;;;;;;;3.51;67.81;100514.31;5055176;28;20098;-86
2021/04/12 05:35:37;;;;;;;8.17;3.73;;;;;;;3.50;67.54;100520.41;5036917;28;20053;-86
2021/04/12 05:38:03;;;;;;;6.90;3.05;;;;;;;3.55;67.93;100525.53;5055111;28;20283;-87
2021/04/12 05:40:41;;;;;;;10.88;4.55;;;;;;;3.52;67.70;100525.59;5037431;28;20073;-86
2021/04/12 05:43:38;;;;;;;5.78;3.35;;;;;;;3.50;67.82;100538.63;5055142;28;20056;-86
2021/04/12 05:46:13;;;;;;;6.55;2.65;;;;;;;3.51;67.67;100529.94;5036986;28;20045;-86
2021/04/12 05:49:01;;;;;;;7.47;3.28;;;;;;;3.47;68.09;100537.81;5054443;28;20049;-86
2021/04/12 05:51:53;;;;;;;8.98;3.45;;;;;;;3.46;67.99;100549.97;5054760;28;20048;-86
2021/04/12 05:54:31;;;;;;;5.70;2.67;;;;;;;3.48;68.11;100545.59;5054435;28;20049;-86
2021/04/12 05:57:27;;;;;;;8.05;3.28;;;;;;;3.48;68.45;100550.81;5054688;28;20136;-86
2021/04/12 06:00:38;;;;;;;7.85;2.88;;;;;;;3.52;68.25;100567.25;5054623;28;20049;-86
2021/04/12 06:03:46;;;;;;;5.95;3.20;;;;;;;3.52;68.41;100557.69;5014150;28;20405;-86
2021/04/12 06:06:49;;;;;;;8.68;3.22;;;;;;;3.52;68.19;100565.50;5033237;28;20060;-86
2021/04/12 06:09:30;;;;;;;5.93;2.70;;;;;;;3.52;68.57;100567.25;5037367;28;20071;-86
2021/04/12 06:12:27;;;;;;;5.97;3.45;;;;;;;3.50;68.08;100567.28;5054345;28;20464;-86
2021/04/12 06:15:00;;;;;;;7.72;3.42;;;;;;;3.51;68.45;100569.00;5036217;28;20049;-86
2021/04/12 06:17:47;;;;;;;9.32;3.03;;;;;;;3.51;68.86;100575.94;5072906;23;20132;-85
2021/04/12 06:20:28;;;;;;;7.07;3.20;;;;;;;3.55;68.74;100579.38;5035168;28;20049;-85
2021/04/12 06:23:17;;;;;;;7.63;3.15;;;;;;;3.57;68.91;100569.78;5049769;28;20060;-84
2021/04/12 06:26:08;;;;;;;6.32;3.15;;;;;;;3.59;69.00;100581.88;5034196;28;20049;-85
2021/04/12 06:29:07;;;;;;;6.05;3.00;;;;;;;3.63;69.36;100577.50;5034922;28;20057;-85
2021/04/12 06:32:01;;;;;;;6.18;2.60;;;;;;;3.70;69.19;100591.28;5033525;28;20053;-85
2021/04/12 06:34:28;;;;;;;;;;;;;;;3.80;69.01;100581.56;5034881;28;20410;-85
2021/04/12 06:37:13;;;;;;;3.92;2.22;;;;;;;3.85;68.93;100588.44;5033187;28;19925;-86
2021/04/12 06:40:12;;;;;;;7.97;2.78;;;;;;;3.91;69.33;100592.69;5033284;28;20046;-85
2021/04/12 06:43:11;;;;;;;7.28;2.60;;;;;;;3.98;68.97;100603.88;4993704;28;20045;-85
2021/04/12 06:46:10;;;;;;;8.88;2.78;;;;;;;4.04;68.92;100602.03;5032521;28;20064;-86
2021/04/12 06:49:25;;;;;;;6.10;2.88;;;;;;;4.10;69.08;100605.41;5033549;28;20493;-87
2021/04/12 06:52:28;;;;;;;6.68;2.85;;;;;;;4.17;68.62;100604.44;5033820;28;20087;-86
2021/04/12 06:55:19;;;;;;;4.63;2.67;;;;;;;4.23;68.89;100612.16;5032362;28;20099;-86
2021/04/12 06:58:16;;;;;;;8.02;2.47;;;;;;;4.28;68.72;100610.34;5032555;28;20478;-88
2021/04/12 07:01:25;;;;;;;3.95;2.58;;;;;;;4.33;68.39;100606.81;5032542;28;20482;-86
2021/04/12 07:04:07;;;;;;;5.93;2.88;;;;;;;4.39;68.61;100622.31;5032528;28;20506;-85
2021/04/12 07:07:16;;;;;;;7.10;3.00;;;;;;;4.43;68.32;100627.47;5033581;28;20045;-87
2021/04/12 07:10:00;;;;;;;6.95;2.40;;;;;;;4.52;68.98;100626.44;5032943;28;20046;-86
2021/04/12 07:12:55;;;;;;;4.45;2.50;;;;;;;4.55;68.85;100623.78;5033596;28;20486;-87
2021/04/12 07:16:01;;;;;;;6.90;2.45;;;;;;;4.61;68.26;100630.63;5032327;28;20049;-87
2021/04/12 07:18:52;;;;;;;6.25;2.35;;;;;;;4.67;68.88;100627.91;5032289;28;20401;-88
2021/04/12 07:21:45;;;;;;;5.57;2.05;;;;;;;4.74;68.88;100626.03;5032455;28;20049;-86
2021/04/12 07:24:34;;;;;;;7.22;2.50;;;;;;;4.82;68.51;100637.19;5019104;28;20434;-88
2021/04/12 07:27:42;;;;;;;6.25;2.53;;;;;;;4.90;68.48;100638.81;5031958;28;20053;-87
2021/04/12 07:30:56;;;;;;;6.32;2.22;;;;;;;4.95;68.02;100635.22;5004987;28;20057;-87
2021/04/12 07:33:50;;;;;;;8.63;3.03;;;;;;;5.01;68.23;100642.06;5018576;28;20526;-88
2021/04/12 07:36:51;;;;;;;7.22;2.63;;;;;;;5.08;68.67;100640.19;5035137;28;20060;-86
2021/04/12 07:39:43;;;;;;;7.95;2.38;;;;;;;5.14;68.75;100640.06;5037061;28;20049;-86
2021/04/12 07:42:48;;;;;;;3.88;2.45;;;;;;;5.23;68.51;100644.22;5035479;28;20516;-87
2021/04/12 07:45:55;;;;;;;2.95;1.90;;;;;;;5.31;68.48;100650.16;5035047;28;20464;-86
2021/04/12 07:48:40;;;;;;;5.95;2.90;;;;;;;5.43;68.98;100653.41;5035344;28;20486;-88
2021/04/12 07:51:31;;;;;;;9.55;2.92;;;;;;;5.46;68.53;100653.34;5036593;28;20061;-88
2021/04/12 07:54:16;;;;;;;8.25;2.85;;;;;;;5.54;68.82;100658.41;5035782;28;20060;-88
2021/04/12 07:57:07;;;;;;;4.57;2.20;;;;;;;5.60;68.57;100655.66;5034830;28;20060;-88
2021/04/12 08:00:04;;;;;;;5.40;1.90;;;;;;;5.67;67.84;100657.25;5036234;28;20449;-88
2021/04/12 08:02:56;;;;;;;5.97;2.50;;;;;;;5.74;68.30;100661.44;5036342;28;20056;-86
2021/04/12 08:05:50;;;;;;;6.55;2.30;;;;;;;5.82;67.88;100669.09;5034425;28;20049;-88
2021/04/12 08:08:34;;;;;;;6.85;2.92;;;;;;;5.87;67.48;100672.47;5036361;28;20103;-88
2021/04/12 08:11:47;;;;;;;5.88;2.67;;;;;;;5.98;67.81;100672.22;5035357;28;20057;-88
2021/04/12 08:14:25;;;;;;;5.97;2.00;;;;;;;6.13;69.73;100672.78;5006453;28;20068;-86
2021/04/12 08:17:13;;;;;;;6.55;2.13;;;;;;;6.28;69.56;100670.72;5034736;28;20057;-86
2021/04/12 08:19:54;;;;;;;9.65;2.83;;;;;;;6.46;68.82;100674.63;5036120;28;20052;-86
2021/04/12 08:22:39;;;;;;;5.75;1.77;;;;;;;6.65;69.19;100677.63;5034531;28;20049;-86
2021/04/12 08:25:42;;;;;;;5.45;1.92;;;;;;;6.78;67.38;100688.66;5035938;28;20053;-86
2021/04/12 08:28:30;;;;;;;6.25;2.70;;;;;;;6.95;67.51;100689.97;5034892;28;20053;-86
2021/04/12 08:31:23;;;;;;;3.00;2.15;;;;;;;7.06;66.27;100695.75;5034632;28;20049;-86
2021/04/12 08:33:57;;;;;;;5.07;1.90;;;;;;;7.20;67.87;100682.28;5035595;28;20498;-86
2021/04/12 08:36:52;;;;;;;6.22;2.10;;;;;;;7.25;65.65;100696.09;5034542;28;20053;-86
2021/04/12 08:39:57;;;;;;;4.68;2.10;;;;;;;7.33;64.87;100705.53;5035904;28;20445;-86
2021/04/12 08:42:57;;;;;;;4.22;1.95;;;;;;;7.37;64.43;100700.13;5036039;28;20474;-86
2021/04/12 08:46:03;;;;;;;6.55;1.88;;;;;;;7.39;64.46;100698.34;5034069;28;20053;-86
2021/04/12 08:49:12;;;;;;;5.93;2.00;;;;;;;7.43;64.37;100701.72;5035405;28;20548;-86
2021/04/12 08:52:15;;;;;;;3.22;1.80;;;;;;;7.47;64.52;100705.13;5034049;28;20061;-86
2021/04/12 08:55:37;;;;;;;4.50;1.60;;;;;;;7.54;63.29;100693.56;5033980;28;20046;-86
2021/04/12 08:58:25;;;;;;;2.55;1.48;;;;;;;7.66;64.17;100703.69;5009929;28;20053;-86
2021/04/12 09:01:22;;;;;;;5.15;1.50;;;;;;;7.79;65.01;100701.56;5034221;28;20049;-86
2021/04/12 09:04:24;;;;;;;3.13;1.10;;;;;;;7.98;64.77;100706.25;5033737;28;20049;-85
2021/04/12 09:06:59;;;;;;;8.10;1.80;;;;;;;8.20;66.40;100708.19;5035239;28;20049;-89
2021/04/12 09:09:45;;;;;;;3.75;1.15;;;;;;;8.32;63.20;100715.69;5034152;28;20508;-88
2021/04/12 09:12:30;;;;;;;2.72;0.98;;;;;;;8.43;62.36;100709.22;5034993;28;20057;-89
2021/04/12 09:15:24;;;;;;;3.92;0.98;;;;;;;8.52;62.43;100713.31;5035504;28;20054;-88
2021/04/12 09:18:27;;;;;;;6.05;1.23;;;;;;;8.59;61.97;100714.84;5034337;28;20457;-86
2021/04/12 09:21:31;;;;;;;2.22;1.40;;;;;;;8.68;61.54;100713.69;5035927;28;20049;-87
2021/04/12 09:24:42;;;;;;;1.48;1.08;;;;;;;8.80;60.55;100718.53;5006094;28;20108;-84
2021/04/12 09:27:20;;;;;;;4.57;1.15;;;;;;;8.89;61.80;100721.75;5036908;28;20060;-84
2021/04/12 09:30:23;;;;;;;2.58;0.90;;;;;;;8.95;60.87;100716.28;5036365;28;20053;-85
2021/04/12 09:33:16;;;;;;;3.93;0.90;;;;;;;9.08;61.36;100716.72;5034862;28;20409;-85
2021/04/12 09:35:48;;;;;;;1.98;0.95;;;;;;;9.24;63.46;100717.84;5035197;28;20354;-85
2021/04/12 09:38:39;;;;;;;4.15;1.10;;;;;;;9.32;58.13;100717.59;5035616;28;20504;-84
2021/04/12 09:41:30;;;;;;;6.50;1.40;;;;;;;9.39;55.15;100724.31;5035882;28;20061;-84
2021/04/12 09:44:08;;;;;;;5.45;1.30;;;;;;;9.44;55.89;100723.31;5035676;28;20049;-85
2021/04/12 09:46:59;;;;;;;1.55;0.77;;;;;;;9.47;59.05;100713.56;5034805;28;20513;-85
2021/04/12 09:50:03;;;;;;;3.03;0.85;;;;;;;9.55;57.89;100723.78;5034894;28;20528;-85
2021/04/12 09:52:42;;;;;;;2.30;1.38;;;;;;;9.67;59.98;100716.31;5035829;28;20128;-85
2021/04/12 09:55:14;;;;;;;4.70;1.10;;;;;;;9.70;56.07;100732.00;5035369;28;20049;-85
2021/04/12 09:57:56;;;;;;;4.30;1.10;;;;;;;9.69;56.69;100733.78;5032592;28;20049;-85
2021/04/12 10:00:37;;;;;;;3.53;1.20;;;;;;;9.68;57.42;100729.41;5034114;28;20314;-86
2021/04/12 10:03:36;;;;;;;3.33;0.82;;;;;;;9.70;57.00;100727.59;5034972;28;20418;-86
2021/04/12 10:06:23;;;;;;;5.03;0.80;;;;;;;9.81;56.50;100723.69;5033436;28;20050;-86
2021/04/12 10:09:23;;;;;;;3.60;1.00;;;;;;;9.93;56.91;100725.88;5020017;28;20053;-86
2021/04/12 10:11:54;;;;;;;1.38;0.90;;;;;;;10.10;59.28;100722.56;5033664;28;20505;-88
2021/04/12 10:14:23;;;;;;;3.13;0.85;;;;;;;10.25;59.88;100722.88;5033203;28;20517;-87
2021/04/12 10:17:07;;;;;;;3.80;1.52;;;;;;;10.41;54.91;100725.75;5032998;28;20050;-86
2021/04/12 10:19:58;;;;;;;3.17;1.10;;;;;;;10.62;56.31;100741.63;5033076;28;20049;-87
2021/04/12 10:22:42;;;;;;;3.55;0.90;;;;;;;10.77;56.85;100743.59;5034368;28;20049;-87
2021/04/12 10:25:21;;;;;;;2.63;0.73;;;;;;;10.77;55.52;100740.13;5032745;28;20416;-86
2021/04/12 10:27:50;;;;;;;1.02;0.80;;;;;;;10.72;55.79;100742.09;5033148;28;20479;-87
2021/04/12 10:30:23;;;;;;;2.70;0.90;;;;;;;10.60;56.40;100738.19;5033056;28;20390;-86
2021/04/12 10:33:01;;;;;;;3.17;1.40;;;;;;;10.38;54.70;100728.50;5033170;28;20054;-88
2021/04/12 10:35:37;;;;;;;3.15;1.05;;;;;;;10.20;54.31;100727.47;5032854;28;20049;-88
2021/04/12 10:38:13;;;;;;;2.42;0.93;;;;;;;10.04;56.60;100728.94;5032540;28;20437;-88
2021/04/12 10:40:39;;;;;;;2.20;1.00;;;;;;;9.98;58.72;100723.91;5033269;28;20041;-88
2021/04/12 10:43:23;;;;;;;3.88;1.10;;;;;;;9.96;58.07;100728.38;5033324;28;20152;-88
2021/04/12 10:46:06;;;;;;;2.85;1.10;;;;;;;10.01;58.49;100723.78;5033193;28;20053;-88
2021/04/12 10:48:42;;;;;;;2.70;0.70;;;;;;;10.17;58.07;100717.94;5033143;28;20050;-88
2021/04/12 10:51:30;;;;;;;3.65;1.05;;;;;;;10.36;56.13;100717.19;5033130;28;20563;-88
2021/04/12 10:54:09;;;;;;;2.75;1.17;;;;;;;10.58;59.18;100711.91;5031479;28;20064;-87
2021/04/12 10:56:48;;;;;;;5.32;1.30;;;;;;;10.84;59.09;100709.13;5031642;28;20466;-88
2021/04/12 10:59:32;;;;;;;3.53;1.17;;;;;;;11.14;57.43;100720.09;5033396;28;20080;-88
2021/04/12 11:02:21;;;;;;;5.13;1.20;;;;;;;11.49;58.34;100735.28;5033384;28;20057;-89
2021/04/12 11:04:59;;;;;;;2.72;0.82;;;;;;;11.76;57.54;100747.25;5031484;28;20049;-88
2021/04/12 11:07:45;;;;;;;3.13;1.20;;;;;;;12.02;57.84;100748.69;5032051;28;20050;-88
2021/04/12 11:10:23;;;;;;;3.20;0.90;;;;;;;12.43;62.37;100752.94;5032773;28;20403;-88
2021/04/12 11:13:10;;;;;;;0.90;0.85;;;;;;;12.90;56.37;100750.66;5031838;28;20077;-88
2021/04/12 11:15:50;;;;;;;1.90;1.00;;;;;;;13.27;55.53;100753.19;5031530;28;20049;-88
2021/04/12 11:18:40;;;;;;;2.80;0.60;;;;;;;13.41;52.77;100749.78;5033042;28;20120;-89
2021/04/12 11:21:27;;;;;;;2.60;0.80;;;;;;;13.42;51.83;100752.38;5031902;28;20076;-88
2021/04/12 11:24:38;;;;;;;1.42;0.52;;;;;;;13.29;51.03;100751.31;5031219;28;20061;-88
2021/04/12 11:27:37;;;;;;;1.80;0.70;;;;;;;13.08;51.29;100753.28;5032462;28;20093;-88
2021/04/12 11:30:34;;;;;;;1.63;0.70;;;;;;;12.95;52.08;100748.63;5005053;28;20068;-88
2021/04/12 11:33:10;;;;;;;0.90;0.57;;;;;;;13.16;54.03;100751.09;5031721;28;20053;-89
2021/04/12 11:35:48;;;;;;;1.17;0.70;;;;;;;13.46;52.13;100752.22;5031422;28;20053;-89
2021/04/12 11:38:22;;;;;;;0.63;0.50;;;;;;;13.85;53.45;100761.59;5031348;28;20521;-89
2021/04/12 11:40:57;;;;;;;2.40;0.60;;;;;;;14.25;53.35;100749.75;5031568;28;20045;-87
2021/04/12 11:43:28;;;;;;;2.45;0.70;;;;;;;14.75;55.10;100745.09;5031683;28;20053;-88
2021/04/12 11:46:00;;;;;;;1.88;0.75;;;;;;;15.33;54.49;100749.69;5032275;28;20053;-89
2021/04/12 11:48:52;;;;;;;2.97;1.10;;;;;;;15.92;49.01;100748.69;5032488;28;20049;-89
2021/04/12 11:51:37;;;;;;;2.30;0.98;;;;;;;16.51;53.72;100744.94;5031553;28;20420;-88
2021/04/12 11:54:10;;;;;;;1.02;0.65;;;;;;;16.85;48.92;100746.31;5032101;28;20064;-89
2021/04/12 11:56:41;;;;;;;2.33;0.88;;;;;;;17.02;50.22;100748.66;5032331;28;20049;-89
2021/04/12 11:59:13;;;;;;;1.90;0.60;;;;;;;16.97;46.09;100758.75;5031031;28;20526;-89
2021/04/12 12:01:48;;;;;;;1.80;0.80;;;;;;;16.75;44.93;100757.53;5032442;28;20084;-89
2021/04/12 12:04:39;;;;;;;0.60;0.60;;;;;;;16.30;45.06;100767.63;5030708;28;20064;-88
2021/04/12 12:07:18;;;;;;;1.40;0.70;;;;;;;15.79;44.81;100771.66;5031034;28;20052;-89
2021/04/12 12:10:16;;;;;;;2.88;0.73;;;;;;;15.21;45.11;100778.66;5032676;28;20059;-89
2021/04/12 12:12:57;;;;;;;2.60;0.77;;;;;;;14.63;44.84;100791.75;5017571;28;20077;-89
2021/04/12 12:15:31;;;;;;;2.42;1.00;;;;;;;14.07;46.09;100802.78;5030690;28;20054;-88
2021/04/12 12:18:22;;;;;;;2.70;0.95;;;;;;;13.45;46.26;100821.91;5031038;28;20064;-88
2021/04/12 12:20:53;;;;;;;2.38;0.85;;;;;;;12.82;46.78;100830.28;5032522;28;20080;-87
2021/04/12 12:23:24;;;;;;;3.33;1.30;;;;;;;12.23;48.10;100839.22;5034840;28;20057;-88
2021/04/12 12:25:56;;;;;;;1.10;0.80;;;;;;;11.64;48.64;100833.06;5035489;28;20045;-88
2021/04/12 12:28:44;;;;;;;3.08;0.90;;;;;;;11.02;49.62;100837.41;5034660;28;20564;-88
2021/04/12 12:31:34;;;;;;;1.60;0.80;;;;;;;10.55;50.71;100836.63;5036119;28;20149;-88
2021/04/12 12:34:38;;;;;;;3.20;0.95;;;;;;;10.12;52.18;100825.97;5035744;28;20061;-87
2021/04/12 12:37:23;;;;;;;2.95;0.80;;;;;;;9.97;54.65;100835.28;5035880;28;20418;-88
2021/04/12 12:39:52;;;;;;;1.83;0.90;;;;;;;9.95;56.08;100837.16;5034639;28;20057;-88
2021/04/12 12:42:27;;;;;;;3.20;1.10;;;;;;;10.18;58.67;100835.41;5035512;28;20560;-88
2021/04/12 12:44:55;;;;;;;7.10;1.40;;;;;;;10.65;61.46;100833.66;5033950;28;20057;-88
2021/04/12 12:47:25;;;;;;;2.00;1.00;;;;;;;11.29;60.58;100829.25;5034160;28;20137;-88
2021/04/12 12:50:00;;;;;;;2.30;1.23;;;;;;;12.05;59.00;100826.84;5034242;28;20050;-88
2021/04/12 12:52:34;;;;;;;1.98;1.25;;;;;;;12.80;58.92;100828.66;5035294;28;20136;-88
2021/04/12 12:55:05;;;;;;;3.00;1.15;;;;;;;13.43;57.85;100828.13;5033676;28;20425;-89
2021/04/12 12:57:35;;;;;;;2.67;1.38;;;;;;;14.04;58.41;100822.34;5035071;28;20049;-89
2021/04/12 13:00:07;;;;;;;5.25;1.40;;;;;;;14.61;57.19;100821.91;5033967;28;20132;-89
2021/04/12 13:02:37;;;;;;;5.45;1.20;;;;;;;15.04;54.35;100822.09;5033737;28;20088;-88